sensor_id;sensor_type;location;lat;lon;timestamp;pressure;altitude;pressure_sealevel;temperature;humidity
7824;BME280;3957;48.61947800;9.05303100;2024-03-22T00:00:18;96757.63;;;6.60;100.00
7824;BME280;3957;48.61947800;9.05303100;2024-03-22T00:01:19;96750.84;;;6.57;100.00
7824;BME280;3957;48.61947800;9.05303100;2024-03-22T00:02:20;96747.66;;;6.54;100.00
7824;BME280;3957;48.61947800;9.05303100;2024-03-22T00:03:20;96749.50;;;6.53;100.00
7824;BME280;3957;48.61947800;9.05303100;2024-03-22T00:04:21;96754.81;;;6.53;100.00
7824;BME280;3957;48.61947800;9.05303100;2024-03-22T00:05:22;96753.81;;;6.54;100.00
7824;BME280;3957;48.61947800;9.05303100;2024-03-22T00:06:22;96746.84;;;6.53;100.00
7824;BME280;3957;48.61947800;9.05303100;2024-03-22T00:07:23;96746.00;;;6.53;100.00
7824;BME280;3957;48.61947800;9.05303100;2024-03-22T00:08:24;96747.66;;;6.54;100.00
7824;BME280;3957;48.61947800;9.05303100;2024-03-22T00:09:25;96747.16;;;6.58;100.00
7824;BME280;3957;48.61947800;9.05303100;2024-03-22T00:10:25;96749.66;;;6.60;100.00
7824;BME280;3957;48.61947800;9.05303100;2024-03-22T00:11:26;96739.19;;;6.58;100.00
7824;BME280;3957;48.61947800;9.05303100;2024-03-22T00:12:26;96741.19;;;6.56;100.00
7824;BME280;3957;48.61947800;9.05303100;2024-03-22T00:13:27;96737.69;;;6.64;100.00
7824;BME280;3957;48.61947800;9.05303100;2024-03-22T00:14:28;96747.19;;;6.67;100.00
7824;BME280;3957;48.61947800;9.05303100;2024-03-22T00:15:28;96743.75;;;6.83;100.00
7824;BME280;3957;48.61947800;9.05303100;2024-03-22T00:16:29;96743.06;;;6.89;100.00
7824;BME280;3957;48.61947800;9.05303100;2024-03-22T00:17:29;96743.75;;;6.91;100.00
7824;BME280;3957;48.61947800;9.05303100;2024-03-22T00:18:31;96736.25;;;6.86;100.00
7824;BME280;3957;48.61947800;9.05303100;2024-03-22T00:19:31;96743.22;;;6.87;100.00
7824;BME280;3957;48.61947800;9.05303100;2024-03-22T00:20:32;96747.06;;;6.93;100.00
7824;BME280;3957;48.61947800;9.05303100;2024-03-22T00:21:32;96737.59;;;7.07;100.00
7824;BME280;3957;48.61947800;9.05303100;2024-03-22T00:22:33;96737.09;;;7.03;100.00
7824;BME280;3957;48.61947800;9.05303100;2024-03-22T00:23:34;96731.97;;;7.10;100.00
7824;BME280;3957;48.61947800;9.05303100;2024-03-22T00:24:34;96733.78;;;7.09;100.00
7824;BME280;3957;48.61947800;9.05303100;2024-03-22T00:25:35;96734.13;;;7.23;100.00
7824;BME280;3957;48.61947800;9.05303100;2024-03-22T00:26:35;96741.75;;;7.34;100.00
7824;BME280;3957;48.61947800;9.05303100;2024-03-22T00:27:36;96740.44;;;7.38;100.00
7824;BME280;3957;48.61947800;9.05303100;2024-03-22T00:28:37;96737.75;;;7.38;100.00
7824;BME280;3957;48.61947800;9.05303100;2024-03-22T00:29:38;96734.94;;;7.40;100.00
7824;BME280;3957;48.61947800;9.05303100;2024-03-22T00:30:39;96734.44;;;7.36;100.00
7824;BME280;3957;48.61947800;9.05303100;2024-03-22T00:31:39;96734.59;;;7.35;100.00
7824;BME280;3957;48.61947800;9.05303100;2024-03-22T00:32:40;96731.94;;;7.35;100.00
7824;BME280;3957;48.61947800;9.05303100;2024-03-22T00:33:41;96734.94;;;7.31;100.00
7824;BME280;3957;48.61947800;9.05303100;2024-03-22T00:34:41;96735.97;;;7.22;100.00
7824;BME280;3957;48.61947800;9.05303100;2024-03-22T00:35:42;96737.94;;;7.20;100.00
7824;BME280;3957;48.61947800;9.05303100;2024-03-22T00:36:42;96737.75;;;7.13;100.00
7824;BME280;3957;48.61947800;9.05303100;2024-03-22T00:37:43;96740.09;;;7.17;100.00
7824;BME280;3957;48.61947800;9.05303100;2024-03-22T00:38:44;96729.31;;;7.18;100.00
7824;BME280;3957;48.61947800;9.05303100;2024-03-22T00:39:45;96730.47;;;7.15;100.00
7824;BME280;3957;48.61947800;9.05303100;2024-03-22T00:40:45;96723.31;;;7.16;100.00
7824;BME280;3957;48.61947800;9.05303100;2024-03-22T00:41:46;96720.13;;;7.12;100.00
7824;BME280;3957;48.61947800;9.05303100;2024-03-22T00:42:47;96721.31;;;7.10;100.00
7824;BME280;3957;48.61947800;9.05303100;2024-03-22T00:43:47;96723.13;;;7.09;100.00
7824;BME280;3957;48.61947800;9.05303100;2024-03-22T00:44:48;96718.16;;;7.06;100.00
7824;BME280;3957;48.61947800;9.05303100;2024-03-22T00:45:48;96716.00;;;7.02;100.00
7824;BME280;3957;48.61947800;9.05303100;2024-03-22T00:46:49;96710.16;;;6.98;100.00
7824;BME280;3957;48.61947800;9.05303100;2024-03-22T00:47:49;96717.78;;;6.93;100.00
7824;BME280;3957;48.61947800;9.05303100;2024-03-22T00:48:50;96711.13;;;6.89;100.00
7824;BME280;3957;48.61947800;9.05303100;2024-03-22T00:49:51;96713.63;;;6.82;100.00
7824;BME280;3957;48.61947800;9.05303100;2024-03-22T00:50:51;96708.97;;;6.76;100.00
7824;BME280;3957;48.61947800;9.05303100;2024-03-22T00:51:52;96713.28;;;6.69;100.00
7824;BME280;3957;48.61947800;9.05303100;2024-03-22T00:52:55;96714.09;;;6.61;100.00
7824;BME280;3957;48.61947800;9.05303100;2024-03-22T00:53:56;96712.28;;;6.53;100.00
7824;BME280;3957;48.61947800;9.05303100;2024-03-22T00:54:57;96706.09;;;6.44;100.00
7824;BME280;3957;48.61947800;9.05303100;2024-03-22T00:55:57;96714.88;;;6.37;100.00
7824;BME280;3957;48.61947800;9.05303100;2024-03-22T00:56:59;96710.38;;;6.29;100.00
7824;BME280;3957;48.61947800;9.05303100;2024-03-22T00:58:00;96700.53;;;6.21;100.00
7824;BME280;3957;48.61947800;9.05303100;2024-03-22T00:59:00;96699.88;;;6.19;100.00
7824;BME280;3957;48.61947800;9.05303100;2024-03-22T01:00:01;96699.19;;;6.17;100.00
7824;BME280;3957;48.61947800;9.05303100;2024-03-22T01:01:02;96700.38;;;6.15;100.00
7824;BME280;3957;48.61947800;9.05303100;2024-03-22T01:02:03;96698.00;;;6.11;100.00
7824;BME280;3957;48.61947800;9.05303100;2024-03-22T01:03:04;96693.84;;;6.09;100.00
7824;BME280;3957;48.61947800;9.05303100;2024-03-22T01:04:04;96692.50;;;6.05;100.00
7824;BME280;3957;48.61947800;9.05303100;2024-03-22T01:05:05;96696.19;;;6.04;100.00
7824;BME280;3957;48.61947800;9.05303100;2024-03-22T01:06:06;96691.31;;;5.99;100.00
7824;BME280;3957;48.61947800;9.05303100;2024-03-22T01:07:07;96690.63;;;5.97;100.00
7824;BME280;3957;48.61947800;9.05303100;2024-03-22T01:08:08;96685.28;;;5.89;100.00
7824;BME280;3957;48.61947800;9.05303100;2024-03-22T01:09:08;96690.41;;;5.82;100.00
7824;BME280;3957;48.61947800;9.05303100;2024-03-22T01:10:10;96692.19;;;5.73;100.00
7824;BME280;3957;48.61947800;9.05303100;2024-03-22T01:11:10;96692.16;;;5.65;100.00
7824;BME280;3957;48.61947800;9.05303100;2024-03-22T01:12:11;96689.59;;;5.55;100.00
7824;BME280;3957;48.61947800;9.05303100;2024-03-22T01:13:12;96680.59;;;5.48;100.00
7824;BME280;3957;48.61947800;9.05303100;2024-03-22T01:14:12;96685.84;;;5.40;100.00
7824;BME280;3957;48.61947800;9.05303100;2024-03-22T01:15:13;96690.66;;;5.36;100.00
7824;BME280;3957;48.61947800;9.05303100;2024-03-22T01:16:13;96682.16;;;5.33;100.00
7824;BME280;3957;48.61947800;9.05303100;2024-03-22T01:17:14;96677.81;;;5.32;100.00
7824;BME280;3957;48.61947800;9.05303100;2024-03-22T01:18:14;96672.84;;;5.28;100.00
7824;BME280;3957;48.61947800;9.05303100;2024-03-22T01:19:15;96678.47;;;5.25;100.00
7824;BME280;3957;48.61947800;9.05303100;2024-03-22T01:20:15;96679.59;;;5.23;100.00
7824;BME280;3957;48.61947800;9.05303100;2024-03-22T01:21:16;96681.75;;;5.19;100.00
7824;BME280;3957;48.61947800;9.05303100;2024-03-22T01:22:18;96678.41;;;5.17;100.00
7824;BME280;3957;48.61947800;9.05303100;2024-03-22T01:23:18;96672.28;;;5.17;100.00
7824;BME280;3957;48.61947800;9.05303100;2024-03-22T01:24:19;96679.03;;;5.11;100.00
7824;BME280;3957;48.61947800;9.05303100;2024-03-22T01:25:20;96674.03;;;5.08;100.00
7824;BME280;3957;48.61947800;9.05303100;2024-03-22T01:26:20;96676.63;;;5.00;100.00
7824;BME280;3957;48.61947800;9.05303100;2024-03-22T01:27:21;96666.94;;;4.90;100.00
7824;BME280;3957;48.61947800;9.05303100;2024-03-22T01:28:22;96673.22;;;4.89;100.00
7824;BME280;3957;48.61947800;9.05303100;2024-03-22T01:29:22;96671.06;;;4.85;100.00
7824;BME280;3957;48.61947800;9.05303100;2024-03-22T01:30:23;96673.84;;;4.83;100.00
7824;BME280;3957;48.61947800;9.05303100;2024-03-22T01:31:23;96666.19;;;4.80;100.00
7824;BME280;3957;48.61947800;9.05303100;2024-03-22T01:32:24;96664.69;;;4.77;100.00
7824;BME280;3957;48.61947800;9.05303100;2024-03-22T01:33:24;96665.00;;;4.74;100.00
7824;BME280;3957;48.61947800;9.05303100;2024-03-22T01:34:25;96667.94;;;4.71;100.00
7824;BME280;3957;48.61947800;9.05303100;2024-03-22T01:35:26;96660.00;;;4.71;100.00
7824;BME280;3957;48.61947800;9.05303100;2024-03-22T01:36:26;96658.31;;;4.70;100.00
7824;BME280;3957;48.61947800;9.05303100;2024-03-22T01:37:27;96654.84;;;4.70;100.00
7824;BME280;3957;48.61947800;9.05303100;2024-03-22T01:38:27;96654.69;;;4.71;100.00
7824;BME280;3957;48.61947800;9.05303100;2024-03-22T01:39:28;96657.19;;;4.73;100.00
7824;BME280;3957;48.61947800;9.05303100;2024-03-22T01:40:29;96649.25;;;4.73;100.00
7824;BME280;3957;48.61947800;9.05303100;2024-03-22T01:41:29;96652.72;;;4.73;100.00
7824;BME280;3957;48.61947800;9.05303100;2024-03-22T01:42:30;96647.41;;;4.73;100.00
7824;BME280;3957;48.61947800;9.05303100;2024-03-22T01:43:32;96652.44;;;4.76;100.00
7824;BME280;3957;48.61947800;9.05303100;2024-03-22T01:44:33;96649.78;;;4.76;100.00
7824;BME280;3957;48.61947800;9.05303100;2024-03-22T01:45:36;96645.28;;;4.77;100.00
7824;BME280;3957;48.61947800;9.05303100;2024-03-22T01:46:37;96651.56;;;4.76;100.00
7824;BME280;3957;48.61947800;9.05303100;2024-03-22T01:47:37;96648.94;;;4.76;100.00
7824;BME280;3957;48.61947800;9.05303100;2024-03-22T01:48:39;96649.09;;;4.74;100.00
7824;BME280;3957;48.61947800;9.05303100;2024-03-22T01:49:39;96653.56;;;4.74;100.00
7824;BME280;3957;48.61947800;9.05303100;2024-03-22T01:50:40;96646.75;;;4.71;100.00
7824;BME280;3957;48.61947800;9.05303100;2024-03-22T01:51:41;96649.91;;;4.75;100.00
7824;BME280;3957;48.61947800;9.05303100;2024-03-22T01:52:42;96641.94;;;4.75;100.00
7824;BME280;3957;48.61947800;9.05303100;2024-03-22T01:53:43;96645.59;;;4.74;100.00
7824;BME280;3957;48.61947800;9.05303100;2024-03-22T01:54:44;96644.09;;;4.71;100.00
7824;BME280;3957;48.61947800;9.05303100;2024-03-22T01:55:44;96637.94;;;4.71;100.00
7824;BME280;3957;48.61947800;9.05303100;2024-03-22T01:56:45;96640.91;;;4.68;100.00
7824;BME280;3957;48.61947800;9.05303100;2024-03-22T01:57:46;96650.84;;;4.66;100.00
7824;BME280;3957;48.61947800;9.05303100;2024-03-22T01:58:49;96644.84;;;4.64;100.00
7824;BME280;3957;48.61947800;9.05303100;2024-03-22T01:59:51;96645.16;;;4.60;100.00
7824;BME280;3957;48.61947800;9.05303100;2024-03-22T02:00:54;96648.78;;;4.59;100.00
7824;BME280;3957;48.61947800;9.05303100;2024-03-22T02:01:54;96647.25;;;4.57;100.00
7824;BME280;3957;48.61947800;9.05303100;2024-03-22T02:02:55;96642.28;;;4.54;100.00
7824;BME280;3957;48.61947800;9.05303100;2024-03-22T02:03:56;96650.38;;;4.52;100.00
7824;BME280;3957;48.61947800;9.05303100;2024-03-22T02:04:57;96641.78;;;4.50;100.00
7824;BME280;3957;48.61947800;9.05303100;2024-03-22T02:05:57;96645.09;;;4.52;100.00
7824;BME280;3957;48.61947800;9.05303100;2024-03-22T02:06:58;96643.78;;;4.56;100.00
7824;BME280;3957;48.61947800;9.05303100;2024-03-22T02:07:59;96642.81;;;4.57;100.00
7824;BME280;3957;48.61947800;9.05303100;2024-03-22T02:08:59;96647.44;;;4.55;100.00
7824;BME280;3957;48.61947800;9.05303100;2024-03-22T02:10:00;96643.41;;;4.51;100.00
7824;BME280;3957;48.61947800;9.05303100;2024-03-22T02:11:01;96644.53;;;4.49;100.00
7824;BME280;3957;48.61947800;9.05303100;2024-03-22T02:12:02;96640.53;;;4.45;100.00
7824;BME280;3957;48.61947800;9.05303100;2024-03-22T02:13:02;96631.09;;;4.42;100.00
7824;BME280;3957;48.61947800;9.05303100;2024-03-22T02:14:03;96631.22;;;4.40;100.00
7824;BME280;3957;48.61947800;9.05303100;2024-03-22T02:15:04;96629.72;;;4.38;100.00
7824;BME280;3957;48.61947800;9.05303100;2024-03-22T02:16:06;96624.72;;;4.35;100.00
7824;BME280;3957;48.61947800;9.05303100;2024-03-22T02:17:06;96623.19;;;4.32;100.00
7824;BME280;3957;48.61947800;9.05303100;2024-03-22T02:18:07;96619.72;;;4.32;100.00
7824;BME280;3957;48.61947800;9.05303100;2024-03-22T02:19:08;96628.66;;;4.31;100.00
7824;BME280;3957;48.61947800;9.05303100;2024-03-22T02:20:09;96624.50;;;4.28;100.00
7824;BME280;3957;48.61947800;9.05303100;2024-03-22T02:21:10;96621.16;;;4.26;100.00
7824;BME280;3957;48.61947800;9.05303100;2024-03-22T02:22:11;96624.63;;;4.26;100.00
7824;BME280;3957;48.61947800;9.05303100;2024-03-22T02:23:11;96619.50;;;4.25;100.00
7824;BME280;3957;48.61947800;9.05303100;2024-03-22T02:24:12;96621.47;;;4.23;100.00
7824;BME280;3957;48.61947800;9.05303100;2024-03-22T02:25:13;96628.56;;;4.22;100.00
7824;BME280;3957;48.61947800;9.05303100;2024-03-22T02:26:13;96619.66;;;4.23;100.00
7824;BME280;3957;48.61947800;9.05303100;2024-03-22T02:27:14;96617.16;;;4.22;100.00
7824;BME280;3957;48.61947800;9.05303100;2024-03-22T02:28:14;96623.16;;;4.24;100.00
7824;BME280;3957;48.61947800;9.05303100;2024-03-22T02:29:15;96626.63;;;4.24;100.00
7824;BME280;3957;48.61947800;9.05303100;2024-03-22T02:30:16;96623.06;;;4.34;100.00
7824;BME280;3957;48.61947800;9.05303100;2024-03-22T02:31:17;96626.16;;;4.47;100.00
7824;BME280;3957;48.61947800;9.05303100;2024-03-22T02:32:18;96618.03;;;4.49;100.00
7824;BME280;3957;48.61947800;9.05303100;2024-03-22T02:33:19;96619.88;;;4.48;100.00
7824;BME280;3957;48.61947800;9.05303100;2024-03-22T02:34:20;96619.22;;;4.46;100.00
7824;BME280;3957;48.61947800;9.05303100;2024-03-22T02:35:20;96620.19;;;4.45;100.00
7824;BME280;3957;48.61947800;9.05303100;2024-03-22T02:36:21;96618.81;;;4.41;100.00
7824;BME280;3957;48.61947800;9.05303100;2024-03-22T02:37:22;96616.19;;;4.41;100.00
7824;BME280;3957;48.61947800;9.05303100;2024-03-22T02:38:23;96621.63;;;4.39;100.00
7824;BME280;3957;48.61947800;9.05303100;2024-03-22T02:39:23;96616.03;;;4.42;100.00
7824;BME280;3957;48.61947800;9.05303100;2024-03-22T02:40:25;96618.91;;;4.49;100.00
7824;BME280;3957;48.61947800;9.05303100;2024-03-22T02:41:26;96609.97;;;4.50;100.00
7824;BME280;3957;48.61947800;9.05303100;2024-03-22T02:42:26;96616.09;;;4.51;100.00
7824;BME280;3957;48.61947800;9.05303100;2024-03-22T02:43:27;96623.56;;;4.55;100.00
7824;BME280;3957;48.61947800;9.05303100;2024-03-22T02:44:27;96615.78;;;4.54;100.00
7824;BME280;3957;48.61947800;9.05303100;2024-03-22T02:45:29;96616.63;;;4.54;100.00
7824;BME280;3957;48.61947800;9.05303100;2024-03-22T02:46:31;96611.00;;;4.57;100.00
7824;BME280;3957;48.61947800;9.05303100;2024-03-22T02:47:31;96617.81;;;4.78;100.00
7824;BME280;3957;48.61947800;9.05303100;2024-03-22T02:48:32;96611.44;;;4.97;100.00
7824;BME280;3957;48.61947800;9.05303100;2024-03-22T02:49:32;96608.03;;;5.05;100.00
7824;BME280;3957;48.61947800;9.05303100;2024-03-22T02:50:34;96610.03;;;5.03;100.00
7824;BME280;3957;48.61947800;9.05303100;2024-03-22T02:51:34;96607.97;;;4.97;100.00
7824;BME280;3957;48.61947800;9.05303100;2024-03-22T02:52:35;96610.25;;;4.91;100.00
7824;BME280;3957;48.61947800;9.05303100;2024-03-22T02:53:35;96615.22;;;4.86;100.00
7824;BME280;3957;48.61947800;9.05303100;2024-03-22T02:54:36;96619.31;;;4.81;100.00
7824;BME280;3957;48.61947800;9.05303100;2024-03-22T02:55:38;96611.97;;;4.74;100.00
7824;BME280;3957;48.61947800;9.05303100;2024-03-22T02:56:39;96614.41;;;4.68;100.00
7824;BME280;3957;48.61947800;9.05303100;2024-03-22T02:57:39;96608.44;;;4.66;100.00
7824;BME280;3957;48.61947800;9.05303100;2024-03-22T02:58:40;96614.56;;;4.66;100.00
7824;BME280;3957;48.61947800;9.05303100;2024-03-22T02:59:40;96611.91;;;4.66;100.00
7824;BME280;3957;48.61947800;9.05303100;2024-03-22T03:00:41;96607.41;;;4.67;100.00
7824;BME280;3957;48.61947800;9.05303100;2024-03-22T03:01:42;96605.94;;;4.64;100.00
7824;BME280;3957;48.61947800;9.05303100;2024-03-22T03:02:42;96606.06;;;4.63;100.00
7824;BME280;3957;48.61947800;9.05303100;2024-03-22T03:03:43;96600.25;;;4.59;100.00
7824;BME280;3957;48.61947800;9.05303100;2024-03-22T03:04:44;96589.59;;;4.51;100.00
7824;BME280;3957;48.61947800;9.05303100;2024-03-22T03:05:44;96593.91;;;4.52;100.00
7824;BME280;3957;48.61947800;9.05303100;2024-03-22T03:06:45;96588.91;;;4.49;100.00
7824;BME280;3957;48.61947800;9.05303100;2024-03-22T03:07:46;96597.53;;;4.51;100.00
7824;BME280;3957;48.61947800;9.05303100;2024-03-22T03:08:47;96596.56;;;4.52;100.00
7824;BME280;3957;48.61947800;9.05303100;2024-03-22T03:09:48;96600.41;;;4.57;100.00
7824;BME280;3957;48.61947800;9.05303100;2024-03-22T03:10:48;96595.25;;;4.74;100.00
7824;BME280;3957;48.61947800;9.05303100;2024-03-22T03:11:49;96596.88;;;4.75;100.00
7824;BME280;3957;48.61947800;9.05303100;2024-03-22T03:12:49;96597.41;;;4.79;100.00
7824;BME280;3957;48.61947800;9.05303100;2024-03-22T03:13:50;96594.28;;;4.83;100.00
7824;BME280;3957;48.61947800;9.05303100;2024-03-22T03:14:50;96596.88;;;4.93;100.00
7824;BME280;3957;48.61947800;9.05303100;2024-03-22T03:15:51;96598.50;;;5.20;100.00
7824;BME280;3957;48.61947800;9.05303100;2024-03-22T03:16:51;96591.34;;;5.47;100.00
7824;BME280;3957;48.61947800;9.05303100;2024-03-22T03:17:52;96594.00;;;5.47;100.00
7824;BME280;3957;48.61947800;9.05303100;2024-03-22T03:18:53;96589.72;;;5.54;100.00
7824;BME280;3957;48.61947800;9.05303100;2024-03-22T03:19:53;96592.03;;;5.57;100.00
7824;BME280;3957;48.61947800;9.05303100;2024-03-22T03:20:54;96583.91;;;5.59;100.00
7824;BME280;3957;48.61947800;9.05303100;2024-03-22T03:21:54;96588.06;;;5.61;100.00
7824;BME280;3957;48.61947800;9.05303100;2024-03-22T03:22:55;96581.44;;;5.57;100.00
7824;BME280;3957;48.61947800;9.05303100;2024-03-22T03:23:58;96593.03;;;5.56;100.00
7824;BME280;3957;48.61947800;9.05303100;2024-03-22T03:24:58;96583.91;;;5.59;100.00
7824;BME280;3957;48.61947800;9.05303100;2024-03-22T03:25:59;96596.06;;;5.70;100.00
7824;BME280;3957;48.61947800;9.05303100;2024-03-22T03:26:59;96590.28;;;5.83;100.00
7824;BME280;3957;48.61947800;9.05303100;2024-03-22T03:28:00;96586.84;;;5.90;100.00
7824;BME280;3957;48.61947800;9.05303100;2024-03-22T03:29:00;96586.19;;;5.96;100.00
7824;BME280;3957;48.61947800;9.05303100;2024-03-22T03:30:01;96586.06;;;5.98;100.00
7824;BME280;3957;48.61947800;9.05303100;2024-03-22T03:31:02;96588.06;;;6.04;100.00
7824;BME280;3957;48.61947800;9.05303100;2024-03-22T03:32:03;96580.78;;;6.06;100.00
7824;BME280;3957;48.61947800;9.05303100;2024-03-22T03:33:04;96584.91;;;6.09;100.00
7824;BME280;3957;48.61947800;9.05303100;2024-03-22T03:34:04;96582.94;;;6.11;100.00
7824;BME280;3957;48.61947800;9.05303100;2024-03-22T03:35:05;96574.28;;;6.09;100.00
7824;BME280;3957;48.61947800;9.05303100;2024-03-22T03:36:06;96569.81;;;6.09;100.00
7824;BME280;3957;48.61947800;9.05303100;2024-03-22T03:37:06;96573.66;;;6.15;100.00
7824;BME280;3957;48.61947800;9.05303100;2024-03-22T03:38:07;96574.16;;;6.10;100.00
7824;BME280;3957;48.61947800;9.05303100;2024-03-22T03:39:08;96577.13;;;6.16;100.00
7824;BME280;3957;48.61947800;9.05303100;2024-03-22T03:40:08;96581.28;;;6.18;100.00
7824;BME280;3957;48.61947800;9.05303100;2024-03-22T03:41:09;96570.47;;;6.11;100.00
7824;BME280;3957;48.61947800;9.05303100;2024-03-22T03:42:10;96571.13;;;6.05;100.00
7824;BME280;3957;48.61947800;9.05303100;2024-03-22T03:43:11;96571.13;;;6.05;100.00
7824;BME280;3957;48.61947800;9.05303100;2024-03-22T03:44:11;96568.47;;;6.05;100.00
7824;BME280;3957;48.61947800;9.05303100;2024-03-22T03:45:12;96573.28;;;6.02;100.00
7824;BME280;3957;48.61947800;9.05303100;2024-03-22T03:46:13;96567.81;;;6.03;100.00
7824;BME280;3957;48.61947800;9.05303100;2024-03-22T03:47:13;96564.16;;;6.04;100.00
7824;BME280;3957;48.61947800;9.05303100;2024-03-22T03:48:14;96560.34;;;6.07;100.00
7824;BME280;3957;48.61947800;9.05303100;2024-03-22T03:49:14;96567.81;;;6.20;100.00
7824;BME280;3957;48.61947800;9.05303100;2024-03-22T03:50:15;96563.19;;;6.22;100.00
7824;BME280;3957;48.61947800;9.05303100;2024-03-22T03:51:16;96573.66;;;6.32;100.00
7824;BME280;3957;48.61947800;9.05303100;2024-03-22T03:52:16;96568.19;;;6.41;100.00
7824;BME280;3957;48.61947800;9.05303100;2024-03-22T03:53:17;96569.69;;;6.44;100.00
7824;BME280;3957;48.61947800;9.05303100;2024-03-22T03:54:17;96564.19;;;6.45;100.00
7824;BME280;3957;48.61947800;9.05303100;2024-03-22T03:55:19;96570.03;;;6.49;100.00
7824;BME280;3957;48.61947800;9.05303100;2024-03-22T03:56:20;96561.53;;;6.45;100.00
7824;BME280;3957;48.61947800;9.05303100;2024-03-22T03:57:20;96565.03;;;6.54;100.00
7824;BME280;3957;48.61947800;9.05303100;2024-03-22T03:58:21;96562.03;;;6.66;100.00
7824;BME280;3957;48.61947800;9.05303100;2024-03-22T03:59:21;96563.03;;;6.64;100.00
7824;BME280;3957;48.61947800;9.05303100;2024-03-22T04:00:22;96561.38;;;6.63;100.00
7824;BME280;3957;48.61947800;9.05303100;2024-03-22T04:01:22;96565.53;;;6.66;100.00
7824;BME280;3957;48.61947800;9.05303100;2024-03-22T04:02:23;96566.84;;;6.70;100.00
7824;BME280;3957;48.61947800;9.05303100;2024-03-22T04:03:24;96559.88;;;6.69;100.00
7824;BME280;3957;48.61947800;9.05303100;2024-03-22T04:04:24;96557.88;;;6.63;100.00
7824;BME280;3957;48.61947800;9.05303100;2024-03-22T04:05:25;96555.72;;;6.50;100.00
7824;BME280;3957;48.61947800;9.05303100;2024-03-22T04:06:25;96557.03;;;6.38;100.00
7824;BME280;3957;48.61947800;9.05303100;2024-03-22T04:07:26;96554.72;;;6.35;100.00
7824;BME280;3957;48.61947800;9.05303100;2024-03-22T04:08:27;96563.19;;;6.30;100.00
7824;BME280;3957;48.61947800;9.05303100;2024-03-22T04:09:27;96560.38;;;6.23;100.00
7824;BME280;3957;48.61947800;9.05303100;2024-03-22T04:10:28;96565.50;;;6.17;100.00
7824;BME280;3957;48.61947800;9.05303100;2024-03-22T04:11:29;96556.06;;;6.39;100.00
7824;BME280;3957;48.61947800;9.05303100;2024-03-22T04:12:29;96558.06;;;6.37;100.00
7824;BME280;3957;48.61947800;9.05303100;2024-03-22T04:13:30;96565.88;;;6.30;100.00
7824;BME280;3957;48.61947800;9.05303100;2024-03-22T04:14:31;96561.03;;;6.25;100.00
7824;BME280;3957;48.61947800;9.05303100;2024-03-22T04:15:34;96564.88;;;6.23;100.00
7824;BME280;3957;48.61947800;9.05303100;2024-03-22T04:16:35;96563.38;;;6.20;100.00
7824;BME280;3957;48.61947800;9.05303100;2024-03-22T04:17:35;96559.69;;;6.21;100.00
7824;BME280;3957;48.61947800;9.05303100;2024-03-22T04:18:36;96560.34;;;6.15;100.00
7824;BME280;3957;48.61947800;9.05303100;2024-03-22T04:19:36;96554.53;;;6.20;100.00
7824;BME280;3957;48.61947800;9.05303100;2024-03-22T04:20:37;96553.56;;;6.21;100.00
7824;BME280;3957;48.61947800;9.05303100;2024-03-22T04:21:38;96552.72;;;6.20;100.00
7824;BME280;3957;48.61947800;9.05303100;2024-03-22T04:22:38;96549.06;;;6.46;100.00
7824;BME280;3957;48.61947800;9.05303100;2024-03-22T04:23:39;96555.25;;;6.46;100.00
7824;BME280;3957;48.61947800;9.05303100;2024-03-22T04:24:39;96561.88;;;6.51;100.00
7824;BME280;3957;48.61947800;9.05303100;2024-03-22T04:25:40;96560.22;;;6.50;100.00
7824;BME280;3957;48.61947800;9.05303100;2024-03-22T04:26:40;96556.88;;;6.47;100.00
7824;BME280;3957;48.61947800;9.05303100;2024-03-22T04:27:41;96556.06;;;6.55;100.00
7824;BME280;3957;48.61947800;9.05303100;2024-03-22T04:28:41;96555.06;;;6.48;100.00
7824;BME280;3957;48.61947800;9.05303100;2024-03-22T04:29:42;96552.75;;;6.45;100.00
7824;BME280;3957;48.61947800;9.05303100;2024-03-22T04:30:42;96557.38;;;6.43;100.00
7824;BME280;3957;48.61947800;9.05303100;2024-03-22T04:31:43;96550.91;;;6.37;100.00
7824;BME280;3957;48.61947800;9.05303100;2024-03-22T04:32:46;96549.75;;;6.40;100.00
7824;BME280;3957;48.61947800;9.05303100;2024-03-22T04:33:46;96555.88;;;6.40;100.00
7824;BME280;3957;48.61947800;9.05303100;2024-03-22T04:34:47;96556.72;;;6.41;100.00
7824;BME280;3957;48.61947800;9.05303100;2024-03-22T04:35:48;96554.56;;;6.36;100.00
7824;BME280;3957;48.61947800;9.05303100;2024-03-22T04:36:48;96562.88;;;6.33;100.00
7824;BME280;3957;48.61947800;9.05303100;2024-03-22T04:37:50;96549.75;;;6.32;100.00
7824;BME280;3957;48.61947800;9.05303100;2024-03-22T04:38:51;96555.41;;;6.37;100.00
7824;BME280;3957;48.61947800;9.05303100;2024-03-22T04:39:51;96563.84;;;6.32;100.00
7824;BME280;3957;48.61947800;9.05303100;2024-03-22T04:40:52;96561.69;;;6.27;100.00
7824;BME280;3957;48.61947800;9.05303100;2024-03-22T04:41:53;96547.91;;;6.32;100.00
7824;BME280;3957;48.61947800;9.05303100;2024-03-22T04:42:54;96563.03;;;6.32;100.00
7824;BME280;3957;48.61947800;9.05303100;2024-03-22T04:43:54;96573.50;;;6.33;100.00
7824;BME280;3957;48.61947800;9.05303100;2024-03-22T04:44:55;96554.56;;;6.36;100.00
7824;BME280;3957;48.61947800;9.05303100;2024-03-22T04:45:56;96554.38;;;6.38;100.00
7824;BME280;3957;48.61947800;9.05303100;2024-03-22T04:46:56;96565.19;;;6.44;100.00
7824;BME280;3957;48.61947800;9.05303100;2024-03-22T04:47:57;96559.88;;;6.44;100.00
7824;BME280;3957;48.61947800;9.05303100;2024-03-22T04:48:57;96560.03;;;6.51;100.00
7824;BME280;3957;48.61947800;9.05303100;2024-03-22T04:49:58;96564.19;;;6.54;100.00